sensor_id;sensor_type;location;lat;lon;timestamp;pressure;altitude;pressure_sealevel;temperature;humidity
53546;BME280;39432;51.902;10.844;2023-07-24T00:00:19;98580.09;;;20.01;100.00
53546;BME280;39432;51.902;10.844;2023-07-24T00:02:52;98579.75;;;20.15;100.00
53546;BME280;39432;51.902;10.844;2023-07-24T00:05:23;98562.97;;;20.11;100.00
53546;BME280;39432;51.902;10.844;2023-07-24T00:07:53;98566.44;;;19.96;100.00
53546;BME280;39432;51.902;10.844;2023-07-24T00:10:23;98556.47;;;20.07;100.00
53546;BME280;39432;51.902;10.844;2023-07-24T00:12:53;98551.63;;;20.04;100.00
53546;BME280;39432;51.902;10.844;2023-07-24T00:15:23;98548.72;;;20.25;100.00
53546;BME280;39432;51.902;10.844;2023-07-24T00:17:55;98537.03;;;20.19;100.00
53546;BME280;39432;51.902;10.844;2023-07-24T00:20:25;98534.72;;;19.97;100.00
53546;BME280;39432;51.902;10.844;2023-07-24T00:22:56;98531.94;;;20.21;100.00
53546;BME280;39432;51.902;10.844;2023-07-24T00:25:26;98529.41;;;20.29;100.00
53546;BME280;39432;51.902;10.844;2023-07-24T00:27:56;98523.72;;;20.25;100.00
53546;BME280;39432;51.902;10.844;2023-07-24T00:30:26;98529.28;;;20.00;100.00
53546;BME280;39432;51.902;10.844;2023-07-24T00:32:58;98528.22;;;20.05;100.00
53546;BME280;39432;51.902;10.844;2023-07-24T00:35:28;98525.22;;;19.98;100.00
53546;BME280;39432;51.902;10.844;2023-07-24T00:37:58;98516.09;;;20.10;100.00
53546;BME280;39432;51.902;10.844;2023-07-24T00:40:28;98522.22;;;20.27;100.00
53546;BME280;39432;51.902;10.844;2023-07-24T00:42:58;98518.63;;;20.39;100.00
53546;BME280;39432;51.902;10.844;2023-07-24T00:45:28;98515.50;;;20.53;100.00
53546;BME280;39432;51.902;10.844;2023-07-24T00:48:01;98511.34;;;20.35;100.00
53546;BME280;39432;51.902;10.844;2023-07-24T00:50:31;98506.47;;;20.32;100.00
53546;BME280;39432;51.902;10.844;2023-07-24T00:53:01;98515.06;;;20.02;100.00
53546;BME280;39432;51.902;10.844;2023-07-24T00:55:32;98514.84;;;19.95;100.00
53546;BME280;39432;51.902;10.844;2023-07-24T00:58:03;98513.09;;;19.90;100.00
53546;BME280;39432;51.902;10.844;2023-07-24T01:00:33;98519.69;;;19.86;100.00
53546;BME280;39432;51.902;10.844;2023-07-24T01:03:06;98531.59;;;19.74;100.00
53546;BME280;39432;51.902;10.844;2023-07-24T01:05:36;98526.97;;;19.78;100.00
53546;BME280;39432;51.902;10.844;2023-07-24T01:08:08;98518.28;;;19.92;100.00
53546;BME280;39432;51.902;10.844;2023-07-24T01:10:38;98528.34;;;20.21;100.00
53546;BME280;39432;51.902;10.844;2023-07-24T01:13:13;98517.34;;;20.24;100.00
53546;BME280;39432;51.902;10.844;2023-07-24T01:15:49;98520.94;;;20.37;100.00
53546;BME280;39432;51.902;10.844;2023-07-24T01:18:22;98523.81;;;20.53;100.00
53546;BME280;39432;51.902;10.844;2023-07-24T01:20:56;98512.94;;;20.36;100.00
53546;BME280;39432;51.902;10.844;2023-07-24T01:23:38;98514.13;;;20.22;100.00
53546;BME280;39432;51.902;10.844;2023-07-24T01:26:14;98508.31;;;20.15;100.00
53546;BME280;39432;51.902;10.844;2023-07-24T01:28:44;98518.31;;;20.16;100.00
53546;BME280;39432;51.902;10.844;2023-07-24T01:31:15;98515.03;;;20.26;100.00
53546;BME280;39432;51.902;10.844;2023-07-24T01:33:46;98515.97;;;20.31;100.00
53546;BME280;39432;51.902;10.844;2023-07-24T01:36:18;98514.13;;;20.22;100.00
53546;BME280;39432;51.902;10.844;2023-07-24T01:38:49;98520.13;;;20.37;100.00
53546;BME280;39432;51.902;10.844;2023-07-24T01:41:23;98524.44;;;20.46;100.00
53546;BME280;39432;51.902;10.844;2023-07-24T01:43:53;98520.59;;;20.26;100.00
53546;BME280;39432;51.902;10.844;2023-07-24T01:46:23;98518.31;;;20.16;100.00
53546;BME280;39432;51.902;10.844;2023-07-24T01:48:54;98514.81;;;20.19;100.00
53546;BME280;39432;51.902;10.844;2023-07-24T01:51:24;98515.75;;;20.23;100.00
53546;BME280;39432;51.902;10.844;2023-07-24T01:53:54;98516.69;;;20.27;100.00
53546;BME280;39432;51.902;10.844;2023-07-24T01:56:27;98524.56;;;20.01;100.00
53546;BME280;39432;51.902;10.844;2023-07-24T01:58:57;98530.69;;;20.07;100.00
53546;BME280;39432;51.902;10.844;2023-07-24T02:01:27;98528.00;;;20.10;100.00
53546;BME280;39432;51.902;10.844;2023-07-24T02:03:57;98522.09;;;20.24;100.00
53546;BME280;39432;51.902;10.844;2023-07-24T02:06:27;98524.53;;;20.25;100.00
53546;BME280;39432;51.902;10.844;2023-07-24T02:08:58;98518.53;;;20.11;100.00
53546;BME280;39432;51.902;10.844;2023-07-24T02:11:30;98514.47;;;20.09;100.00
53546;BME280;39432;51.902;10.844;2023-07-24T02:14:00;98519.22;;;20.08;100.00
53546;BME280;39432;51.902;10.844;2023-07-24T02:16:30;98520.38;;;20.07;100.00
53546;BME280;39432;51.902;10.844;2023-07-24T02:19:00;98514.81;;;20.19;100.00
53546;BME280;39432;51.902;10.844;2023-07-24T02:21:30;98522.56;;;20.14;100.00
53546;BME280;39432;51.902;10.844;2023-07-24T02:24:00;98517.03;;;20.14;100.00
53546;BME280;39432;51.902;10.844;2023-07-24T02:26:33;98513.69;;;19.84;100.00
53546;BME280;39432;51.902;10.844;2023-07-24T02:29:03;98515.03;;;20.14;100.00
53546;BME280;39432;51.902;10.844;2023-07-24T02:31:33;98512.50;;;20.21;100.00
53546;BME280;39432;51.902;10.844;2023-07-24T02:34:03;98511.44;;;20.26;100.00
53546;BME280;39432;51.902;10.844;2023-07-24T02:36:33;98506.78;;;20.42;100.00
53546;BME280;39432;51.902;10.844;2023-07-24T02:39:03;98510.63;;;20.38;100.00
53546;BME280;39432;51.902;10.844;2023-07-24T02:41:36;98500.81;;;20.81;100.00
53546;BME280;39432;51.902;10.844;2023-07-24T02:44:06;98496.97;;;21.13;100.00
53546;BME280;39432;51.902;10.844;2023-07-24T02:46:36;98504.28;;;20.25;100.00
53546;BME280;39432;51.902;10.844;2023-07-24T02:49:06;98504.63;;;20.36;100.00
53546;BME280;39432;51.902;10.844;2023-07-24T02:51:37;98491.41;;;20.57;100.00
53546;BME280;39432;51.902;10.844;2023-07-24T02:54:06;98496.97;;;20.57;100.00
53546;BME280;39432;51.902;10.844;2023-07-24T02:56:39;98503.44;;;20.49;100.00
53546;BME280;39432;51.902;10.844;2023-07-24T02:59:09;98505.75;;;20.59;100.00
53546;BME280;39432;51.902;10.844;2023-07-24T03:01:42;98508.06;;;20.33;100.00
53546;BME280;39432;51.902;10.844;2023-07-24T03:04:12;98505.31;;;20.20;100.00
53546;BME280;39432;51.902;10.844;2023-07-24T03:06:42;98501.31;;;20.70;100.00
53546;BME280;39432;51.902;10.844;2023-07-24T03:09:12;98495.31;;;20.68;100.00
53546;BME280;39432;51.902;10.844;2023-07-24T03:11:44;98497.91;;;21.17;100.00
53546;BME280;39432;51.902;10.844;2023-07-24T03:14:14;98495.38;;;21.12;100.00
53546;BME280;39432;51.902;10.844;2023-07-24T03:16:44;98486.56;;;21.10;100.00
53546;BME280;39432;51.902;10.844;2023-07-24T03:19:14;98483.47;;;19.82;100.00
53546;BME280;39432;51.902;10.844;2023-07-24T03:21:46;98491.81;;;19.94;100.00
53546;BME280;39432;51.902;10.844;2023-07-24T03:24:16;98492.59;;;19.70;100.00
53546;BME280;39432;51.902;10.844;2023-07-24T03:26:49;98504.94;;;19.15;100.00
53546;BME280;39432;51.902;10.844;2023-07-24T03:29:20;98517.56;;;19.25;100.00
53546;BME280;39432;51.902;10.844;2023-07-24T03:31:50;98503.47;;;19.63;100.00
53546;BME280;39432;51.902;10.844;2023-07-24T03:34:20;98511.25;;;19.37;100.00
53546;BME280;39432;51.902;10.844;2023-07-24T03:36:50;98505.50;;;19.54;100.00
53546;BME280;39432;51.902;10.844;2023-07-24T03:39:20;98492.22;;;20.58;100.00
53546;BME280;39432;51.902;10.844;2023-07-24T03:41:54;98497.22;;;20.15;100.00
53546;BME280;39432;51.902;10.844;2023-07-24T03:44:24;98495.16;;;20.00;100.00
53546;BME280;39432;51.902;10.844;2023-07-24T03:46:53;98505.44;;;19.30;100.00
53546;BME280;39432;51.902;10.844;2023-07-24T03:49:23;98508.00;;;19.80;100.00
53546;BME280;39432;51.902;10.844;2023-07-24T03:51:53;98508.44;;;19.70;100.00
53546;BME280;39432;51.902;10.844;2023-07-24T03:54:23;98515.06;;;19.90;100.00
53546;BME280;39432;51.902;10.844;2023-07-24T03:56:56;98496.75;;;20.50;100.00
53546;BME280;39432;51.902;10.844;2023-07-24T03:59:26;98509.66;;;18.82;100.00
53546;BME280;39432;51.902;10.844;2023-07-24T04:01:56;98506.38;;;19.34;100.00
53546;BME280;39432;51.902;10.844;2023-07-24T04:04:26;98490.75;;;20.11;100.00
53546;BME280;39432;51.902;10.844;2023-07-24T04:06:56;98492.56;;;18.80;100.00
53546;BME280;39432;51.902;10.844;2023-07-24T04:09:26;98494.69;;;18.53;100.00
53546;BME280;39432;51.902;10.844;2023-07-24T04:11:58;98505.00;;;18.74;100.00
53546;BME280;39432;51.902;10.844;2023-07-24T04:14:29;98495.38;;;18.50;100.00
53546;BME280;39432;51.902;10.844;2023-07-24T04:16:59;98502.44;;;18.68;100.00
53546;BME280;39432;51.902;10.844;2023-07-24T04:19:29;98489.41;;;19.02;100.00
53546;BME280;39432;51.902;10.844;2023-07-24T04:21:58;98492.16;;;18.90;100.00
53546;BME280;39432;51.902;10.844;2023-07-24T04:24:28;98478.56;;;19.55;100.00
53546;BME280;39432;51.902;10.844;2023-07-24T04:27:03;98473.88;;;19.67;100.00
53546;BME280;39432;51.902;10.844;2023-07-24T04:29:33;98462.72;;;19.55;100.00
53546;BME280;39432;51.902;10.844;2023-07-24T04:32:04;98458.09;;;20.20;100.00
53546;BME280;39432;51.902;10.844;2023-07-24T04:34:34;98442.84;;;19.53;100.00
53546;BME280;39432;51.902;10.844;2023-07-24T04:37:04;98449.19;;;19.41;100.00
53546;BME280;39432;51.902;10.844;2023-07-24T04:39:34;98454.78;;;20.67;100.00
53546;BME280;39432;51.902;10.844;2023-07-24T04:42:07;98444.16;;;20.57;100.00
53546;BME280;39432;51.902;10.844;2023-07-24T04:44:37;98441.16;;;21.06;100.00
53546;BME280;39432;51.902;10.844;2023-07-24T04:47:07;98427.28;;;21.22;100.00
53546;BME280;39432;51.902;10.844;2023-07-24T04:49:37;98426.25;;;20.70;100.00
53546;BME280;39432;51.902;10.844;2023-07-24T04:52:07;98431.22;;;21.21;100.00
53546;BME280;39432;51.902;10.844;2023-07-24T04:54:37;98425.66;;;22.00;100.00
53546;BME280;39432;51.902;10.844;2023-07-24T04:57:10;98419.88;;;22.63;100.00
53546;BME280;39432;51.902;10.844;2023-07-24T04:59:40;98418.34;;;23.27;100.00
53546;BME280;39432;51.902;10.844;2023-07-24T05:02:10;98401.91;;;23.95;100.00
53546;BME280;39432;51.902;10.844;2023-07-24T05:04:40;98408.50;;;24.66;100.00
53546;BME280;39432;51.902;10.844;2023-07-24T05:07:11;98399.56;;;23.97;100.00
53546;BME280;39432;51.902;10.844;2023-07-24T05:09:41;98398.97;;;24.70;100.00
53546;BME280;39432;51.902;10.844;2023-07-24T05:12:13;98387.06;;;24.77;100.00
53546;BME280;39432;51.902;10.844;2023-07-24T05:14:43;98379.50;;;25.63;100.00
53546;BME280;39432;51.902;10.844;2023-07-24T05:17:13;98370.59;;;26.01;100.00
53546;BME280;39432;51.902;10.844;2023-07-24T05:19:43;98377.63;;;26.40;92.78
53546;BME280;39432;51.902;10.844;2023-07-24T05:22:13;98366.19;;;28.34;86.36
53546;BME280;39432;51.902;10.844;2023-07-24T05:24:43;98380.53;;;24.66;99.14
53546;BME280;39432;51.902;10.844;2023-07-24T05:27:19;98371.75;;;26.70;94.34
53546;BME280;39432;51.902;10.844;2023-07-24T05:29:49;98358.16;;;28.22;86.24
53546;BME280;39432;51.902;10.844;2023-07-24T05:32:19;98360.47;;;26.52;91.76
53546;BME280;39432;51.902;10.844;2023-07-24T05:34:49;98363.59;;;25.26;98.54
53546;BME280;39432;51.902;10.844;2023-07-24T05:37:19;98370.72;;;24.46;100.00
53546;BME280;39432;51.902;10.844;2023-07-24T05:39:49;98376.31;;;24.83;100.00
53546;BME280;39432;51.902;10.844;2023-07-24T05:42:21;98372.19;;;23.79;100.00
53546;BME280;39432;51.902;10.844;2023-07-24T05:44:51;98374.78;;;23.46;100.00
53546;BME280;39432;51.902;10.844;2023-07-24T05:47:21;98358.84;;;23.96;100.00
53546;BME280;39432;51.902;10.844;2023-07-24T05:49:51;98361.69;;;23.73;100.00
53546;BME280;39432;51.902;10.844;2023-07-24T05:52:21;98368.22;;;23.34;100.00
53546;BME280;39432;51.902;10.844;2023-07-24T05:54:51;98367.53;;;23.18;100.00
53546;BME280;39432;51.902;10.844;2023-07-24T05:57:26;98361.69;;;22.61;100.00
53546;BME280;39432;51.902;10.844;2023-07-24T05:59:56;98371.69;;;22.08;100.00
53546;BME280;39432;51.902;10.844;2023-07-24T06:02:26;98373.44;;;21.62;100.00
53546;BME280;39432;51.902;10.844;2023-07-24T06:04:56;98376.19;;;21.77;100.00
53546;BME280;39432;51.902;10.844;2023-07-24T06:07:26;98371.81;;;21.61;100.00
53546;BME280;39432;51.902;10.844;2023-07-24T06:09:56;98362.31;;;21.46;100.00
53546;BME280;39432;51.902;10.844;2023-07-24T06:12:29;98354.88;;;21.50;100.00
53546;BME280;39432;51.902;10.844;2023-07-24T06:14:59;98356.22;;;21.75;100.00
53546;BME280;39432;51.902;10.844;2023-07-24T06:17:29;98349.25;;;21.81;100.00
53546;BME280;39432;51.902;10.844;2023-07-24T06:19:59;98352.00;;;21.30;100.00
53546;BME280;39432;51.902;10.844;2023-07-24T06:22:29;98362.03;;;21.35;100.00
53546;BME280;39432;51.902;10.844;2023-07-24T06:24:59;98365.44;;;21.28;100.00
53546;BME280;39432;51.902;10.844;2023-07-24T06:27:31;98351.53;;;21.28;100.00
53546;BME280;39432;51.902;10.844;2023-07-24T06:30:01;98339.78;;;22.21;100.00
53546;BME280;39432;51.902;10.844;2023-07-24T06:32:41;98326.78;;;21.74;100.00
53546;BME280;39432;51.902;10.844;2023-07-24T06:35:11;98323.88;;;21.36;100.00
53546;BME280;39432;51.902;10.844;2023-07-24T06:37:42;98333.78;;;21.49;100.00
53546;BME280;39432;51.902;10.844;2023-07-24T06:40:13;98322.63;;;21.49;100.00
53546;BME280;39432;51.902;10.844;2023-07-24T06:42:46;98318.28;;;21.67;100.00
53546;BME280;39432;51.902;10.844;2023-07-24T06:45:16;98313.69;;;22.10;100.00
53546;BME280;39432;51.902;10.844;2023-07-24T06:47:46;98336.44;;;21.61;100.00
53546;BME280;39432;51.902;10.844;2023-07-24T06:50:16;98339.22;;;21.61;100.00
53546;BME280;39432;51.902;10.844;2023-07-24T06:52:46;98330.22;;;21.68;100.00
53546;BME280;39432;51.902;10.844;2023-07-24T06:55:17;98330.09;;;21.45;100.00
53546;BME280;39432;51.902;10.844;2023-07-24T06:57:50;98330.53;;;21.15;100.00
53546;BME280;39432;51.902;10.844;2023-07-24T07:00:20;98331.88;;;21.21;100.00
53546;BME280;39432;51.902;10.844;2023-07-24T07:02:50;98323.25;;;21.26;100.00
53546;BME280;39432;51.902;10.844;2023-07-24T07:05:20;98329.81;;;21.34;100.00
53546;BME280;39432;51.902;10.844;2023-07-24T07:07:51;98319.50;;;21.35;100.00
53546;BME280;39432;51.902;10.844;2023-07-24T07:10:21;98325.50;;;21.37;100.00
53546;BME280;39432;51.902;10.844;2023-07-24T07:12:54;98322.19;;;21.82;100.00
53546;BME280;39432;51.902;10.844;2023-07-24T07:15:24;98329.19;;;22.50;100.00
53546;BME280;39432;51.902;10.844;2023-07-24T07:17:54;98317.47;;;22.21;100.00
53546;BME280;39432;51.902;10.844;2023-07-24T07:20:24;98315.66;;;22.71;100.00
53546;BME280;39432;51.902;10.844;2023-07-24T07:22:54;98312.41;;;22.88;100.00
53546;BME280;39432;51.902;10.844;2023-07-24T07:25:24;98299.22;;;23.35;100.00
53546;BME280;39432;51.902;10.844;2023-07-24T07:27:56;98291.69;;;22.67;100.00
53546;BME280;39432;51.902;10.844;2023-07-24T07:30:26;98289.41;;;23.18;100.00
53546;BME280;39432;51.902;10.844;2023-07-24T07:32:56;98287.44;;;22.96;100.00
53546;BME280;39432;51.902;10.844;2023-07-24T07:35:26;98273.72;;;23.10;100.00
53546;BME280;39432;51.902;10.844;2023-07-24T07:37:56;98276.31;;;23.49;100.00
53546;BME280;39432;51.902;10.844;2023-07-24T07:40:26;98271.75;;;23.37;100.00
53546;BME280;39432;51.902;10.844;2023-07-24T07:42:59;98265.97;;;24.39;100.00
53546;BME280;39432;51.902;10.844;2023-07-24T07:45:29;98269.78;;;23.37;100.00
53546;BME280;39432;51.902;10.844;2023-07-24T07:47:59;98253.13;;;23.71;100.00
53546;BME280;39432;51.902;10.844;2023-07-24T07:50:29;98259.06;;;23.96;100.00
53546;BME280;39432;51.902;10.844;2023-07-24T07:52:59;98256.84;;;25.35;100.00
53546;BME280;39432;51.902;10.844;2023-07-24T07:55:29;98261.47;;;24.68;100.00
53546;BME280;39432;51.902;10.844;2023-07-24T07:58:01;98261.22;;;25.32;100.00
53546;BME280;39432;51.902;10.844;2023-07-24T08:00:31;98265.44;;;24.64;100.00
53546;BME280;39432;51.902;10.844;2023-07-24T08:03:01;98257.28;;;25.40;99.84
53546;BME280;39432;51.902;10.844;2023-07-24T08:05:31;98265.94;;;25.17;100.00
53546;BME280;39432;51.902;10.844;2023-07-24T08:08:01;98260.78;;;24.82;99.11
53546;BME280;39432;51.902;10.844;2023-07-24T08:10:31;98249.88;;;26.74;94.19
53546;BME280;39432;51.902;10.844;2023-07-24T08:13:04;98250.34;;;25.82;94.87
53546;BME280;39432;51.902;10.844;2023-07-24T08:15:35;98254.97;;;25.53;93.08
53546;BME280;39432;51.902;10.844;2023-07-24T08:18:06;98244.06;;;26.07;92.33
53546;BME280;39432;51.902;10.844;2023-07-24T08:20:36;98247.50;;;25.13;92.49
53546;BME280;39432;51.902;10.844;2023-07-24T08:23:07;98237.25;;;26.08;92.30
53546;BME280;39432;51.902;10.844;2023-07-24T08:25:37;98235.53;;;25.19;92.50
53546;BME280;39432;51.902;10.844;2023-07-24T08:28:09;98242.66;;;25.10;91.97
53546;BME280;39432;51.902;10.844;2023-07-24T08:30:40;98235.41;;;26.62;88.98
53546;BME280;39432;51.902;10.844;2023-07-24T08:33:10;98216.53;;;26.48;77.18
53546;BME280;39432;51.902;10.844;2023-07-24T08:35:40;98230.44;;;26.09;75.85
53546;BME280;39432;51.902;10.844;2023-07-24T08:38:09;98227.34;;;26.42;76.99
53546;BME280;39432;51.902;10.844;2023-07-24T08:40:39;98227.56;;;25.87;76.48
53546;BME280;39432;51.902;10.844;2023-07-24T08:43:12;98230.28;;;25.73;78.82
53546;BME280;39432;51.902;10.844;2023-07-24T08:45:43;98218.59;;;26.55;74.83
53546;BME280;39432;51.902;10.844;2023-07-24T08:48:13;98216.84;;;26.18;76.14
53546;BME280;39432;51.902;10.844;2023-07-24T08:50:43;98217.16;;;25.91;75.95
53546;BME280;39432;51.902;10.844;2023-07-24T08:53:14;98222.59;;;26.57;74.80
53546;BME280;39432;51.902;10.844;2023-07-24T08:55:47;98227.41;;;26.85;74.07
53546;BME280;39432;51.902;10.844;2023-07-24T08:58:20;98236.97;;;25.51;77.64
53546;BME280;39432;51.902;10.844;2023-07-24T09:00:50;98238.97;;;25.54;80.20
53546;BME280;39432;51.902;10.844;2023-07-24T09:03:21;98234.25;;;25.10;80.66
53546;BME280;39432;51.902;10.844;2023-07-24T09:05:51;98233.25;;;24.84;83.84
53546;BME280;39432;51.902;10.844;2023-07-24T09:08:30;98242.53;;;24.95;85.77
53546;BME280;39432;51.902;10.844;2023-07-24T09:11:02;98237.41;;;24.60;86.84
53546;BME280;39432;51.902;10.844;2023-07-24T09:13:35;98234.25;;;24.62;88.07
53546;BME280;39432;51.902;10.844;2023-07-24T09:16:05;98227.88;;;24.65;87.68
53546;BME280;39432;51.902;10.844;2023-07-24T09:18:39;98228.44;;;25.36;86.03
53546;BME280;39432;51.902;10.844;2023-07-24T09:21:10;98222.59;;;25.56;81.67
53546;BME280;39432;51.902;10.844;2023-07-24T09:23:41;98219.53;;;25.79;79.70
53546;BME280;39432;51.902;10.844;2023-07-24T09:26:11;98223.28;;;26.22;80.60
53546;BME280;39432;51.902;10.844;2023-07-24T09:28:51;98216.00;;;25.99;78.68
53546;BME280;39432;51.902;10.844;2023-07-24T09:31:21;98212.97;;;26.58;76.99
53546;BME280;39432;51.902;10.844;2023-07-24T09:33:51;98214.06;;;26.25;77.42
53546;BME280;39432;51.902;10.844;2023-07-24T09:36:21;98195.25;;;26.29;76.61
53546;BME280;39432;51.902;10.844;2023-07-24T09:39:00;98211.25;;;26.25;76.90
53546;BME280;39432;51.902;10.844;2023-07-24T09:41:33;98195.31;;;27.29;73.40
53546;BME280;39432;51.902;10.844;2023-07-24T09:44:06;98200.56;;;26.84;74.50
53546;BME280;39432;51.902;10.844;2023-07-24T09:46:36;98193.72;;;26.57;75.42
53546;BME280;39432;51.902;10.844;2023-07-24T09:49:09;98199.75;;;26.80;74.63
53546;BME280;39432;51.902;10.844;2023-07-24T09:51:41;98186.50;;;26.56;74.30
53546;BME280;39432;51.902;10.844;2023-07-24T09:54:15;98184.13;;;26.72;73.42
53546;BME280;39432;51.902;10.844;2023-07-24T09:56:51;98190.91;;;26.74;73.27
53546;BME280;39432;51.902;10.844;2023-07-24T09:59:39;98193.72;;;26.57;71.93
53546;BME280;39432;51.902;10.844;2023-07-24T10:02:11;98192.94;;;26.70;71.52
53546;BME280;39432;51.902;10.844;2023-07-24T10:04:43;98196.56;;;27.10;70.54
53546;BME280;39432;51.902;10.844;2023-07-24T10:07:14;98201.75;;;26.90;70.84
53546;BME280;39432;51.902;10.844;2023-07-24T10:09:49;98188.53;;;27.09;68.88
53546;BME280;39432;51.902;10.844;2023-07-24T10:12:20;98205.69;;;27.75;67.40
53546;BME280;39432;51.902;10.844;2023-07-24T10:14:53;98200.94;;;27.33;67.81
53546;BME280;39432;51.902;10.844;2023-07-24T10:17:36;98198.94;;;26.83;68.48
53546;BME280;39432;51.902;10.844;2023-07-24T10:20:08;98200.97;;;27.08;68.92
53546;BME280;39432;51.902;10.844;2023-07-24T10:22:41;98204.97;;;26.92;68.83
53546;BME280;39432;51.902;10.844;2023-07-24T10:25:11;98190.53;;;27.12;71.13
53546;BME280;39432;51.902;10.844;2023-07-24T10:27:42;98185.31;;;27.07;71.46
53546;BME280;39432;51.902;10.844;2023-07-24T10:30:16;98187.31;;;27.17;70.44
53546;BME280;39432;51.902;10.844;2023-07-24T10:33:08;98176.09;;;27.17;69.55
53546;BME280;39432;51.902;10.844;2023-07-24T10:35:40;98180.91;;;26.77;68.52
53546;BME280;39432;51.902;10.844;2023-07-24T10:38:12;98177.69;;;27.03;69.03
53546;BME280;39432;51.902;10.844;2023-07-24T10:40:43;98178.50;;;26.50;71.42
53546;BME280;39432;51.902;10.844;2023-07-24T10:43:17;98169.69;;;26.77;68.52
53546;BME280;39432;51.902;10.844;2023-07-24T10:45:51;98182.50;;;26.53;69.30
53546;BME280;39432;51.902;10.844;2023-07-24T10:48:25;98164.00;;;26.27;70.65
53546;BME280;39432;51.902;10.844;2023-07-24T10:50:55;98156.44;;;26.81;70.98
53546;BME280;39432;51.902;10.844;2023-07-24T10:53:25;98153.66;;;26.67;68.25
53546;BME280;39432;51.902;10.844;2023-07-24T10:55:55;98151.25;;;26.72;70.76
53546;BME280;39432;51.902;10.844;2023-07-24T10:58:25;98152.03;;;26.84;69.36
53546;BME280;39432;51.902;10.844;2023-07-24T11:00:59;98145.56;;;27.37;68.73
53546;BME280;39432;51.902;10.844;2023-07-24T11:03:29;98151.63;;;26.57;68.01
53546;BME280;39432;51.902;10.844;2023-07-24T11:05:59;98151.16;;;27.37;69.31
53546;BME280;39432;51.902;10.844;2023-07-24T11:08:29;98152.84;;;26.88;65.88
53546;BME280;39432;51.902;10.844;2023-07-24T11:11:03;98150.00;;;26.98;67.78
53546;BME280;39432;51.902;10.844;2023-07-24T11:13:33;98150.41;;;26.97;68.01
53546;BME280;39432;51.902;10.844;2023-07-24T11:16:07;98148.81;;;26.78;68.76
53546;BME280;39432;51.902;10.844;2023-07-24T11:18:44;98152.00;;;27.01;67.41
53546;BME280;39432;51.902;10.844;2023-07-24T11:21:22;98145.63;;;26.69;67.54
53546;BME280;39432;51.902;10.844;2023-07-24T11:23:53;98140.81;;;26.51;68.06
53546;BME280;39432;51.902;10.844;2023-07-24T11:26:25;98139.53;;;27.24;68.12
53546;BME280;39432;51.902;10.844;2023-07-24T11:28:55;98135.13;;;27.23;66.69
53546;BME280;39432;51.902;10.844;2023-07-24T11:31:36;98139.03;;;27.65;67.49
53546;BME280;39432;51.902;10.844;2023-07-24T11:34:07;98149.53;;;27.39;65.75
53546;BME280;39432;51.902;10.844;2023-07-24T11:36:37;98142.38;;;27.17;66.42
53546;BME280;39432;51.902;10.844;2023-07-24T11:39:07;98137.13;;;26.26;68.38
53546;BME280;39432;51.902;10.844;2023-07-24T11:41:37;98143.56;;;26.30;69.92
53546;BME280;39432;51.902;10.844;2023-07-24T11:44:07;98151.94;;;26.09;71.52
53546;BME280;39432;51.902;10.844;2023-07-24T11:46:40;98155.16;;;26.14;73.54
53546;BME280;39432;51.902;10.844;2023-07-24T11:49:14;98154.16;;;25.60;74.02
53546;BME280;39432;51.902;10.844;2023-07-24T11:51:45;98157.34;;;25.59;77.20
53546;BME280;39432;51.902;10.844;2023-07-24T11:54:16;98160.66;;;25.82;77.91
53546;BME280;39432;51.902;10.844;2023-07-24T11:56:46;98152.72;;;26.02;79.20
53546;BME280;39432;51.902;10.844;2023-07-24T11:59:16;98161.66;;;26.43;78.06
53546;BME280;39432;51.902;10.844;2023-07-24T12:01:49;98135.53;;;26.07;78.23
53546;BME280;39432;51.902;10.844;2023-07-24T12:04:19;98143.16;;;26.21;75.00
53546;BME280;39432;51.902;10.844;2023-07-24T12:06:49;98132.00;;;26.82;73.76
53546;BME280;39432;51.902;10.844;2023-07-24T12:09:19;98131.47;;;25.87;75.02
53546;BME280;39432;51.902;10.844;2023-07-24T12:11:49;98130.25;;;25.77;77.55
53546;BME280;39432;51.902;10.844;2023-07-24T12:14:19;98122.66;;;25.85;78.24
53546;BME280;39432;51.902;10.844;2023-07-24T12:17:00;98120.69;;;26.07;78.95
53546;BME280;39432;51.902;10.844;2023-07-24T12:19:30;98119.97;;;26.77;75.95
53546;BME280;39432;51.902;10.844;2023-07-24T12:22:00;98118.38;;;26.51;75.08
53546;BME280;39432;51.902;10.844;2023-07-24T12:24:31;98111.50;;;26.10;75.51
53546;BME280;39432;51.902;10.844;2023-07-24T12:27:01;98099.06;;;26.00;75.48
53546;BME280;39432;51.902;10.844;2023-07-24T12:29:31;98090.25;;;26.12;73.63
53546;BME280;39432;51.902;10.844;2023-07-24T12:32:05;98078.69;;;26.46;73.21
53546;BME280;39432;51.902;10.844;2023-07-24T12:34:35;98077.88;;;26.67;72.20
53546;BME280;39432;51.902;10.844;2023-07-24T12:37:05;98086.28;;;26.67;72.90
53546;BME280;39432;51.902;10.844;2023-07-24T12:39:35;98083.88;;;26.40;72.17
53546;BME280;39432;51.902;10.844;2023-07-24T12:42:05;98087.41;;;27.09;68.96
53546;BME280;39432;51.902;10.844;2023-07-24T12:44:36;98091.09;;;26.63;70.84
53546;BME280;39432;51.902;10.844;2023-07-24T12:47:09;98080.66;;;26.74;71.46
53546;BME280;39432;51.902;10.844;2023-07-24T12:49:39;98075.75;;;27.24;69.95
53546;BME280;39432;51.902;10.844;2023-07-24T12:52:09;98067.75;;;27.09;68.69
53546;BME280;39432;51.902;10.844;2023-07-24T12:54:40;98062.69;;;27.73;68.95
53546;BME280;39432;51.902;10.844;2023-07-24T12:57:27;98072.72;;;27.74;66.78
53546;BME280;39432;51.902;10.844;2023-07-24T12:59:57;98065.97;;;27.57;66.89
53546;BME280;39432;51.902;10.844;2023-07-24T13:02:29;98058.97;;;26.96;69.22